Time;durP1;ratioP1;P1;durP2;ratioP2;P2;SDS_P1;SDS_P2;PMS_P1;PMS_P2;Temp;Humidity;BMP_temperature;BMP_pressure;BME280_temperature;BME280_humidity;BME280_pressure;Samples;Min_cycle;Max_cycle;Signal;HPM_P1;HPM_P2
2022/04/10 00:02:08;;;;;;;6.00;4.55;;;;;;;10.68;100.00;98828.09;6215871;23;20398;-63
2022/04/10 00:04:52;;;;;;;9.05;4.05;;;;;;;10.74;100.00;98827.88;6224142;23;20075;-62
2022/04/10 00:07:36;;;;;;;5.93;4.23;;;;;;;10.61;100.00;98798.31;6220457;23;20074;-62
2022/04/10 00:10:21;;;;;;;5.70;3.63;;;;;;;10.75;100.00;98824.28;6219310;23;20594;-63
2022/04/10 00:13:05;;;;;;;5.38;3.58;;;;;;;10.73;100.00;98812.91;6215740;23;20027;-61
2022/04/10 00:15:50;;;;;;;10.02;4.05;;;;;;;10.62;100.00;98813.28;6217575;23;20067;-63
2022/04/10 00:18:36;;;;;;;6.95;4.15;;;;;;;10.52;100.00;98773.91;6186067;23;20032;-64
2022/04/10 00:21:20;;;;;;;6.00;3.75;;;;;;;10.58;100.00;98806.34;6219006;23;20075;-63
2022/04/10 00:24:05;;;;;;;4.97;3.90;;;;;;;10.35;100.00;98803.63;6217596;23;20031;-65
2022/04/10 00:26:50;;;;;;;6.03;4.30;;;;;;;10.19;100.00;98775.94;6217296;23;20110;-70
2022/04/10 00:29:34;;;;;;;9.20;4.10;;;;;;;10.37;100.00;98785.91;6220107;23;20036;-62
2022/04/10 00:32:19;;;;;;;6.72;4.68;;;;;;;10.27;100.00;98765.06;6217245;23;20031;-62
2022/04/10 00:35:05;;;;;;;9.43;4.30;;;;;;;10.41;100.00;98781.38;6188571;23;20035;-65
2022/04/10 00:37:49;;;;;;;5.15;3.80;;;;;;;10.34;100.00;98767.47;6187821;23;20166;-63
2022/04/10 00:40:34;;;;;;;5.47;3.80;;;;;;;10.24;100.00;98758.09;6198596;23;20078;-64
2022/04/10 00:43:18;;;;;;;6.30;4.32;;;;;;;10.46;100.00;98782.94;6219641;23;20059;-62
2022/04/10 00:46:03;;;;;;;5.57;3.97;;;;;;;10.51;100.00;98775.69;6219975;23;20112;-72
2022/04/10 00:48:48;;;;;;;6.75;4.05;;;;;;;10.49;100.00;98766.94;6219845;23;20059;-60
2022/04/10 00:51:46;;;;;;;6.47;4.15;;;;;;;10.49;100.00;98766.06;6217299;23;20094;-63
2022/04/10 00:54:33;;;;;;;6.28;3.90;;;;;;;10.33;100.00;98762.22;6188428;23;20367;-62
2022/04/10 00:57:19;;;;;;;8.85;4.78;;;;;;;10.32;100.00;98761.34;6209513;23;20055;-62
2022/04/10 01:00:09;;;;;;;5.03;4.03;;;;;;;10.24;100.00;98754.59;6218246;23;20104;-61
2022/04/10 01:02:54;;;;;;;6.43;4.43;;;;;;;10.15;100.00;98753.13;6185829;23;20059;-64
2022/04/10 01:05:39;;;;;;;6.70;4.90;;;;;;;10.02;100.00;98750.91;6218293;23;20233;-64
2022/04/10 01:08:24;;;;;;;6.25;4.63;;;;;;;9.94;100.00;98752.94;6216866;23;20375;-64
2022/04/10 01:11:08;;;;;;;6.40;4.55;;;;;;;10.02;100.00;98746.50;6164374;23;20553;-64
2022/04/10 01:13:53;;;;;;;7.60;4.53;;;;;;;10.04;100.00;98752.59;6194345;23;20102;-65
2022/04/10 01:16:41;;;;;;;6.50;4.72;;;;;;;9.77;100.00;98732.31;6216676;23;20063;-64
2022/04/10 01:19:27;;;;;;;9.35;4.72;;;;;;;9.82;100.00;98748.94;6195865;23;20477;-62
2022/04/10 01:22:29;;;;;;;7.72;5.03;;;;;;;9.94;100.00;98747.66;6188027;23;20477;-62
2022/04/10 01:25:14;;;;;;;11.73;5.22;;;;;;;9.93;100.00;98757.38;6188394;23;20501;-62
2022/04/10 01:28:09;;;;;;;9.55;5.30;;;;;;;9.76;100.00;98727.97;6165970;23;20035;-62
2022/04/10 01:30:54;;;;;;;10.15;5.75;;;;;;;9.81;100.00;98771.00;6167502;23;20102;-63
2022/04/10 01:33:38;;;;;;;10.63;5.57;;;;;;;9.72;100.00;98771.31;6219380;23;20116;-63
2022/04/10 01:36:28;;;;;;;8.25;5.22;;;;;;;9.75;100.00;98767.72;6195941;23;20485;-71
2022/04/10 01:39:17;;;;;;;9.63;6.15;;;;;;;9.55;100.00;98769.22;6220156;23;20075;-62
2022/04/10 01:42:05;;;;;;;9.88;6.35;;;;;;;9.68;100.00;98766.19;6187705;23;20027;-63
2022/04/10 01:44:51;;;;;;;8.48;5.65;;;;;;;9.63;100.00;98762.81;6197802;23;20103;-62
2022/04/10 01:47:38;;;;;;;8.20;5.57;;;;;;;9.61;100.00;98757.56;6218765;23;20039;-63
2022/04/10 01:50:23;;;;;;;9.45;5.72;;;;;;;9.46;100.00;98758.09;6185229;23;20359;-62
2022/04/10 01:53:10;;;;;;;10.02;5.45;;;;;;;9.42;100.00;98765.22;6208359;23;20024;-63
2022/04/10 01:55:54;;;;;;;9.80;5.47;;;;;;;9.37;100.00;98756.56;6165973;23;20105;-63
2022/04/10 01:58:42;;;;;;;7.80;5.80;;;;;;;9.31;100.00;98742.69;6166944;23;20047;-64
2022/04/10 02:01:26;;;;;;;12.95;5.55;;;;;;;9.39;100.00;98746.78;6187803;23;20486;-63
2022/04/10 02:04:11;;;;;;;6.50;4.43;;;;;;;9.38;100.00;98733.66;6164753;23;20036;-65
2022/04/10 02:06:55;;;;;;;8.98;4.93;;;;;;;9.43;100.00;98737.00;6220266;23;20031;-62
2022/04/10 02:09:40;;;;;;;8.13;4.88;;;;;;;9.42;100.00;98730.84;6200945;23;20358;-62
2022/04/10 02:12:25;;;;;;;8.82;4.82;;;;;;;9.43;100.00;98726.41;6218871;23;20027;-61
2022/04/10 02:15:10;;;;;;;6.55;4.60;;;;;;;9.40;100.00;98723.88;6233574;23;20040;-62
2022/04/10 02:17:55;;;;;;;8.10;4.95;;;;;;;9.49;100.00;98724.44;6230645;23;20032;-65
2022/04/10 02:20:40;;;;;;;10.68;5.13;;;;;;;9.57;100.00;98727.69;6164465;23;20112;-61
2022/04/10 02:23:25;;;;;;;8.27;4.90;;;;;;;9.61;100.00;98717.88;6216728;23;20027;-63
2022/04/10 02:26:11;;;;;;;9.85;4.88;;;;;;;9.51;100.00;98716.47;6216671;23;20509;-63
2022/04/10 02:28:56;;;;;;;9.13;4.50;;;;;;;9.50;100.00;98725.31;6182551;23;20102;-63
2022/04/10 02:31:41;;;;;;;8.30;4.63;;;;;;;9.54;100.00;98722.50;6164644;23;20036;-61
2022/04/10 02:34:25;;;;;;;8.65;4.40;;;;;;;9.57;100.00;98725.97;6166489;23;20031;-63
2022/04/10 02:37:10;;;;;;;7.00;4.30;;;;;;;9.57;100.00;98725.97;6218805;23;20074;-62
2022/04/10 02:39:55;;;;;;;8.48;4.68;;;;;;;9.55;100.00;98723.38;6197427;23;20504;-62
2022/04/10 02:42:39;;;;;;;7.75;4.63;;;;;;;9.59;100.00;98723.22;6217819;23;20058;-63
2022/04/10 02:45:24;;;;;;;7.65;4.10;;;;;;;9.56;100.00;98711.88;6166690;23;20036;-62
2022/04/10 02:48:09;;;;;;;7.97;4.47;;;;;;;9.58;100.00;98718.00;6217647;23;20355;-61
2022/04/10 02:50:54;;;;;;;10.40;4.70;;;;;;;9.53;100.00;98718.13;6218830;23;20059;-61
2022/04/10 02:53:38;;;;;;;6.57;4.47;;;;;;;9.63;100.00;98726.63;6196868;23;20363;-62
2022/04/10 02:56:23;;;;;;;6.50;3.72;;;;;;;9.74;100.00;98718.34;6199372;23;20044;-62
2022/04/10 02:59:27;;;;;;;6.50;4.32;;;;;;;9.79;100.00;98719.91;6199203;23;20046;-65
2022/04/10 03:02:31;;;;;;;8.43;4.65;;;;;;;9.85;100.00;98713.56;6218076;23;20154;-62
2022/04/10 03:05:34;;;;;;;10.95;4.30;;;;;;;9.79;100.00;98719.03;6201715;23;20063;-63
2022/04/10 03:08:37;;;;;;;8.43;4.50;;;;;;;9.83;100.00;98720.66;6219264;23;20075;-64
2022/04/10 03:11:41;;;;;;;6.68;4.47;;;;;;;9.76;100.00;98727.97;6199359;23;20024;-63
2022/04/10 03:14:44;;;;;;;8.18;4.63;;;;;;;9.89;100.00;98715.19;6202306;23;20035;-66
2022/04/10 03:17:48;;;;;;;7.43;4.97;;;;;;;9.80;100.00;98707.56;6203611;23;20032;-63
2022/04/10 03:20:52;;;;;;;8.05;5.47;;;;;;;9.89;100.00;98710.72;6220602;23;20039;-64
2022/04/10 03:23:57;;;;;;;6.70;5.50;;;;;;;9.91;100.00;98724.81;6220595;23;20358;-62
2022/04/10 03:27:00;;;;;;;9.77;5.07;;;;;;;9.92;100.00;98728.31;6203357;23;20026;-61
2022/04/10 03:30:04;;;;;;;7.25;5.13;;;;;;;9.87;100.00;98733.75;6203546;23;20429;-61
2022/04/10 03:33:09;;;;;;;8.43;5.10;;;;;;;9.92;100.00;98730.97;6219282;23;20119;-62
2022/04/10 03:36:13;;;;;;;10.32;5.30;;;;;;;9.89;100.00;98716.03;6205306;23;20027;-62
2022/04/10 03:39:16;;;;;;;8.93;5.25;;;;;;;9.95;100.00;98729.06;6224901;23;20031;-62
2022/04/10 03:42:20;;;;;;;9.20;5.00;;;;;;;9.98;100.00;98728.09;6225729;23;20071;-61
2022/04/10 03:45:23;;;;;;;10.25;5.20;;;;;;;9.97;100.00;98729.88;6224604;23;20074;-63
2022/04/10 03:48:26;;;;;;;9.35;5.60;;;;;;;9.98;100.00;98736.03;6225678;23;20074;-62
2022/04/10 03:51:29;;;;;;;10.35;5.50;;;;;;;10.00;100.00;98732.41;6225833;23;20075;-62
2022/04/10 03:54:33;;;;;;;8.27;5.30;;;;;;;10.15;100.00;98725.75;6208247;23;20032;-63
2022/04/10 03:57:37;;;;;;;8.45;4.60;;;;;;;10.11;100.00;98735.59;6225529;23;20059;-62
2022/04/10 04:00:40;;;;;;;8.23;5.78;;;;;;;10.02;100.00;98733.25;6224690;23;20102;-63
2022/04/10 04:03:49;;;;;;;8.05;5.97;;;;;;;10.02;100.00;98738.56;6224709;23;20079;-61
2022/04/10 04:06:53;;;;;;;9.05;6.00;;;;;;;9.95;100.00;98736.13;6225098;23;20035;-62
2022/04/10 04:09:58;;;;;;;10.80;6.32;;;;;;;9.96;100.00;98732.59;6225129;23;20032;-61
2022/04/10 04:13:01;;;;;;;9.32;5.55;;;;;;;9.89;100.00;98739.84;6207253;23;20032;-62
2022/04/10 04:16:06;;;;;;;9.98;6.40;;;;;;;9.98;100.00;98744.88;6225301;23;20358;-62
2022/04/10 04:19:10;;;;;;;7.18;5.90;;;;;;;9.82;100.00;98742.78;6208707;23;20027;-61
2022/04/10 04:22:13;;;;;;;8.98;6.38;;;;;;;9.82;100.00;98748.94;6208409;23;20410;-62
2022/04/10 04:25:18;;;;;;;7.78;5.78;;;;;;;9.88;100.00;98742.59;6209218;23;20410;-62
2022/04/10 04:28:23;;;;;;;9.57;6.03;;;;;;;9.89;100.00;98753.09;6227426;23;20023;-62
2022/04/10 04:31:27;;;;;;;9.82;5.53;;;;;;;9.95;100.00;98752.91;6226457;23;20047;-64
2022/04/10 04:34:31;;;;;;;7.40;5.88;;;;;;;9.95;100.00;98752.03;6208133;23;20074;-62
2022/04/10 04:37:40;;;;;;;9.48;6.28;;;;;;;10.00;100.00;98747.47;6206914;23;20133;-63
2022/04/10 04:40:44;;;;;;;8.98;5.70;;;;;;;10.10;100.00;98770.97;6224435;23;20032;-63
2022/04/10 04:43:47;;;;;;;9.57;5.97;;;;;;;9.94;100.00;98782.97;6224446;23;20394;-63
2022/04/10 04:46:51;;;;;;;10.23;6.85;;;;;;;9.92;100.00;98779.47;6207790;23;20067;-63
2022/04/10 04:49:54;;;;;;;8.90;6.70;;;;;;;9.99;100.00;98781.00;6207596;23;20082;-63
2022/04/10 04:52:59;;;;;;;12.25;6.68;;;;;;;9.76;100.00;98761.53;6225021;23;20406;-63
2022/04/10 04:56:04;;;;;;;11.45;7.10;;;;;;;9.54;100.00;98791.31;6224500;23;20055;-63
2022/04/10 04:59:15;;;;;;;12.45;8.15;;;;;;;9.62;100.00;98785.78;6207995;23;20027;-62
2022/04/10 05:02:19;;;;;;;8.98;7.15;;;;;;;9.89;100.00;98781.38;6225741;23;20090;-63
2022/04/10 05:05:22;;;;;;;14.48;8.30;;;;;;;10.08;100.00;98775.44;6207470;23;20410;-63
2022/04/10 05:08:27;;;;;;;13.98;8.43;;;;;;;10.10;100.00;98778.91;6224688;23;20031;-62
2022/04/10 05:11:32;;;;;;;11.52;7.68;;;;;;;10.09;100.00;98790.41;6224462;23;20077;-64
2022/04/10 05:14:36;;;;;;;9.07;7.03;;;;;;;10.12;100.00;98795.59;6224245;23;20027;-66
2022/04/10 05:17:40;;;;;;;11.15;7.15;;;;;;;9.84;100.00;98786.81;6224518;23;20351;-64
2022/04/10 05:20:46;;;;;;;13.48;7.68;;;;;;;9.83;100.00;98794.78;6207464;23;20090;-62
2022/04/10 05:23:54;;;;;;;11.30;7.45;;;;;;;9.88;100.00;98800.84;6224812;23;20112;-63
2022/04/10 05:26:59;;;;;;;12.63;8.05;;;;;;;10.05;100.00;98812.59;6207389;23;20027;-62
2022/04/10 05:30:04;;;;;;;16.50;8.30;;;;;;;9.98;100.00;98808.41;6225468;23;20043;-64
2022/04/10 05:33:10;;;;;;;15.10;9.47;;;;;;;9.85;100.00;98811.50;6224294;23;20027;-63
2022/04/10 05:36:13;;;;;;;14.75;8.45;;;;;;;9.91;100.00;98817.47;6224808;23;20254;-61
2022/04/10 05:39:20;;;;;;;15.05;9.27;;;;;;;9.86;100.00;98811.47;6224162;23;20406;-64
2022/04/10 05:42:23;;;;;;;13.05;8.02;;;;;;;9.97;100.00;98813.75;6224453;23;20024;-62
2022/04/10 05:45:27;;;;;;;18.35;9.57;;;;;;;10.17;100.00;98814.84;6224076;23;20027;-63
2022/04/10 05:48:33;;;;;;;13.27;9.00;;;;;;;10.25;100.00;98839.31;6224105;23;20071;-63
2022/04/10 05:51:37;;;;;;;13.68;8.27;;;;;;;10.12;100.00;98831.84;6224370;23;20056;-64
2022/04/10 05:54:40;;;;;;;12.73;8.25;;;;;;;10.23;100.00;98827.91;6225188;23;20478;-63
2022/04/10 05:57:44;;;;;;;12.23;8.40;;;;;;;10.41;100.00;98824.63;6206871;23;20027;-63
2022/04/10 06:00:47;;;;;;;12.13;8.25;;;;;;;10.44;100.00;98819.22;6224145;23;20342;-61
2022/04/10 06:03:55;;;;;;;14.05;8.82;;;;;;;10.38;100.00;98835.34;6224569;23;20043;-63
2022/04/10 06:06:59;;;;;;;14.88;9.35;;;;;;;10.49;100.00;98842.91;6224699;23;20031;-63
2022/04/10 06:10:09;;;;;;;13.25;8.73;;;;;;;10.56;100.00;98841.78;6224531;23;20031;-64
2022/04/10 06:13:13;;;;;;;11.95;8.20;;;;;;;10.69;100.00;98848.38;6225890;23;20028;-63
2022/04/10 06:16:06;;;;;;;12.57;8.45;;;;;;;10.81;100.00;98850.59;6224477;23;20359;-66
2022/04/10 06:18:51;;;;;;;9.85;7.85;;;;;;;10.91;100.00;98857.34;6192813;23;20089;-64
2022/04/10 06:21:37;;;;;;;13.07;8.00;;;;;;;10.88;100.00;98862.72;6192912;23;20470;-63
2022/04/10 06:24:23;;;;;;;13.70;8.68;;;;;;;10.84;100.00;98866.41;6171703;23;20036;-63
2022/04/10 06:27:08;;;;;;;15.75;8.90;;;;;;;10.80;100.00;98868.28;6223502;23;20096;-63
2022/04/10 06:29:55;;;;;;;13.32;8.93;;;;;;;10.80;100.00;98875.41;6192515;23;20082;-62
2022/04/10 06:32:39;;;;;;;13.07;8.30;;;;;;;10.90;100.00;98888.28;6223396;23;20031;-67
2022/04/10 06:35:26;;;;;;;11.18;7.53;;;;;;;10.65;100.00;98891.84;6222912;23;20477;-63
2022/04/10 06:38:13;;;;;;;10.07;7.30;;;;;;;10.31;100.00;98896.50;6225448;23;20031;-63
2022/04/10 06:41:02;;;;;;;12.40;8.30;;;;;;;10.23;100.00;98904.72;6215405;23;20127;-66
2022/04/10 06:43:46;;;;;;;11.35;8.07;;;;;;;10.06;100.00;98901.75;6194532;23;20030;-64
2022/04/10 06:46:51;;;;;;;14.30;8.48;;;;;;;10.09;100.00;98906.09;6198221;23;20027;-65
2022/04/10 06:49:39;;;;;;;11.82;7.88;;;;;;;10.12;100.00;98906.00;6173902;23;20023;-66
2022/04/10 06:52:24;;;;;;;;;;;;;;;10.07;100.00;98902.59;6174170;23;20147;-65
2022/04/10 06:55:09;;;;;;;10.15;7.18;;;;;;;10.16;100.00;98907.63;6225322;23;20250;-64
2022/04/10 06:57:56;;;;;;;12.70;8.13;;;;;;;10.05;100.00;98907.94;6215526;23;20051;-64
2022/04/10 07:00:42;;;;;;;14.10;8.20;;;;;;;10.26;100.00;98903.75;6204350;23;20031;-67
2022/04/10 07:03:30;;;;;;;9.77;7.28;;;;;;;10.60;100.00;98910.53;6225506;23;20028;-64
2022/04/10 07:06:17;;;;;;;11.77;7.53;;;;;;;10.84;100.00;98915.00;6173517;23;20054;-65
2022/04/10 07:09:05;;;;;;;13.57;7.55;;;;;;;10.68;100.00;98923.53;6194540;23;20406;-63
2022/04/10 07:11:53;;;;;;;10.20;8.00;;;;;;;10.69;100.00;98919.97;6204627;23;20032;-64
2022/04/10 07:14:54;;;;;;;11.45;7.50;;;;;;;10.92;100.00;98928.00;6224748;23;20067;-63
2022/04/10 07:17:40;;;;;;;13.40;7.75;;;;;;;10.97;100.00;98936.66;6173178;23;20074;-66
2022/04/10 07:20:27;;;;;;;13.55;7.88;;;;;;;10.94;100.00;98937.63;6223829;23;20476;-65
2022/04/10 07:26:18;;;;;;;13.57;8.67;;;;;;;11.06;100.00;98941.63;6193776;23;20036;-66
2022/04/10 07:29:10;;;;;;;12.32;9.00;;;;;;;11.07;100.00;98954.84;6225579;23;20079;-64
2022/04/10 07:31:55;;;;;;;13.18;9.48;;;;;;;10.91;100.00;98956.31;6193903;23;20028;-65
2022/04/10 07:34:40;;;;;;;12.20;10.07;;;;;;;10.88;100.00;98972.31;6225484;23;20031;-65
2022/04/10 07:37:48;;;;;;;15.77;9.75;;;;;;;10.77;100.00;98984.22;6194074;23;20369;-65
2022/04/10 07:40:34;;;;;;;12.40;9.88;;;;;;;10.87;100.00;98991.81;6203663;23;20071;-65
2022/04/10 07:43:18;;;;;;;13.75;10.90;;;;;;;10.73;100.00;98994.06;6215007;23;20031;-64
2022/04/10 07:49:27;;;;;;;16.33;10.60;;;;;;;10.59;100.00;99012.19;6215881;23;20183;-65
2022/04/10 07:52:20;;;;;;;16.23;11.45;;;;;;;10.50;100.00;99012.50;6205419;23;20111;-65
2022/04/10 07:55:18;;;;;;;18.98;11.63;;;;;;;10.49;100.00;99017.84;6196398;23;20103;-65
2022/04/10 07:58:06;;;;;;;15.30;10.68;;;;;;;10.50;100.00;99023.09;6193325;23;20031;-65
2022/04/10 08:00:52;;;;;;;16.00;11.35;;;;;;;10.65;100.00;99025.25;6172576;23;20027;-65
2022/04/10 08:03:37;;;;;;;15.32;10.25;;;;;;;10.78;100.00;99023.94;6215006;23;20111;-65
2022/04/10 08:06:58;;;;;;;14.02;9.55;;;;;;;10.82;100.00;99032.66;6103835;23;20084;-64
2022/04/10 08:09:43;;;;;;;14.18;9.48;;;;;;;10.90;100.00;99035.91;6103660;23;20076;-67
2022/04/10 08:12:27;;;;;;;14.13;9.20;;;;;;;11.09;100.00;99042.34;6113379;23;20032;-67
2022/04/10 08:15:12;;;;;;;11.13;8.45;;;;;;;11.01;100.00;99047.94;6103587;23;20029;-66
2022/04/10 08:17:56;;;;;;;12.93;8.07;;;;;;;11.03;100.00;99063.78;6112976;23;20418;-68
2022/04/10 08:20:41;;;;;;;11.20;6.47;;;;;;;11.05;100.00;99056.63;6063553;23;20029;-67
2022/04/10 08:23:27;;;;;;;5.72;4.38;;;;;;;10.75;100.00;99058.50;6102659;23;20073;-64
2022/04/10 08:26:12;;;;;;;3.90;3.50;;;;;;;10.67;100.00;99078.22;6112926;23;20452;-65
2022/04/10 08:28:57;;;;;;;4.80;3.67;;;;;;;10.58;100.00;99074.09;6082872;23;20194;-65
2022/04/10 08:31:42;;;;;;;3.35;2.35;;;;;;;10.41;100.00;99084.34;6123606;23;20029;-67
2022/04/10 08:34:27;;;;;;;;;;;;;;;10.38;100.00;99100.31;6112876;23;20029;-66
2022/04/10 08:37:11;;;;;;;4.43;1.50;;;;;;;10.15;100.00;99107.19;6062545;23;20460;-66
2022/04/10 08:39:56;;;;;;;2.47;1.42;;;;;;;10.07;100.00;99109.19;6081888;23;20028;-66
2022/04/10 08:42:40;;;;;;;1.75;1.23;;;;;;;10.03;100.00;99107.50;6214323;23;20355;-66
2022/04/10 08:45:25;;;;;;;2.17;0.93;;;;;;;9.97;100.00;99123.59;6203401;23;20367;-64
2022/04/10 08:48:11;;;;;;;2.90;1.27;;;;;;;10.03;100.00;99126.94;6193238;23;20415;-65
2022/04/10 08:51:01;;;;;;;1.88;1.02;;;;;;;10.03;100.00;99123.41;6223951;23;20077;-64
2022/04/10 08:53:46;;;;;;;2.45;1.20;;;;;;;10.05;100.00;99135.72;6227123;23;20031;-65
2022/04/10 08:56:31;;;;;;;2.17;1.13;;;;;;;10.10;100.00;99136.47;6229562;23;20050;-65
2022/04/10 08:59:20;;;;;;;2.75;1.20;;;;;;;10.10;100.00;99130.31;6176134;23;20113;-64
2022/04/10 09:02:05;;;;;;;2.33;1.10;;;;;;;10.37;100.00;99154.25;6203521;23;20514;-63
2022/04/10 09:04:50;;;;;;;1.77;1.20;;;;;;;10.46;100.00;99153.09;6224356;23;20051;-66
2022/04/10 09:07:35;;;;;;;;;;;;;;;10.56;100.00;99158.06;6172735;23;20367;-65
2022/04/10 09:10:19;;;;;;;2.38;1.05;;;;;;;10.41;100.00;99166.50;6223369;23;19963;-64
2022/04/10 09:13:07;;;;;;;2.42;1.05;;;;;;;10.32;100.00;99171.19;6202948;23;20103;-64
2022/04/10 09:16:01;;;;;;;2.03;1.48;;;;;;;10.23;100.00;99179.38;6192953;23;20059;-64
2022/04/10 09:18:54;;;;;;;3.90;1.70;;;;;;;10.15;100.00;99184.00;6192755;23;20501;-65
2022/04/10 09:21:43;;;;;;;2.72;1.42;;;;;;;9.89;100.00;99122.94;6192561;23;20027;-63
2022/04/10 09:24:28;;;;;;;3.63;1.80;;;;;;;10.37;100.00;99191.34;6214935;23;20075;-63
2022/04/10 09:27:27;;;;;;;3.80;2.05;;;;;;;10.63;100.00;99188.78;6171288;23;20434;-65
2022/04/10 09:30:17;;;;;;;2.85;1.90;;;;;;;10.91;100.00;99213.56;6192510;23;20134;-65
2022/04/10 09:33:02;;;;;;;3.05;1.80;;;;;;;11.02;100.00;99215.91;6192447;23;20027;-65
2022/04/10 09:35:47;;;;;;;2.80;1.92;;;;;;;10.83;100.00;99228.84;6223583;23;20358;-63
2022/04/10 09:38:31;;;;;;;4.05;2.33;;;;;;;10.87;100.00;99243.75;6202549;23;20043;-64
2022/04/10 09:41:22;;;;;;;7.70;3.20;;;;;;;10.71;100.00;99241.59;6223827;23;20194;-64
2022/04/10 09:44:20;;;;;;;5.28;2.95;;;;;;;10.90;100.00;99237.47;6202727;23;20247;-64
2022/04/10 09:47:09;;;;;;;4.47;3.15;;;;;;;10.73;100.00;99247.72;6223195;23;20066;-64
2022/04/10 09:50:04;;;;;;;5.70;3.20;;;;;;;10.76;100.00;99256.44;6192554;23;20023;-65
2022/04/10 09:52:49;;;;;;;5.93;4.40;;;;;;;10.50;100.00;99266.94;6193089;23;20071;-65
2022/04/10 09:55:39;;;;;;;3.40;2.72;;;;;;;10.60;100.00;99256.94;6192028;23;20422;-63
2022/04/10 09:58:24;;;;;;;3.97;2.42;;;;;;;10.55;100.00;99262.38;6223721;23;20463;-65
2022/04/10 10:01:11;;;;;;;4.18;2.90;;;;;;;10.70;100.00;99272.56;6223041;23;20031;-64
2022/04/10 10:03:57;;;;;;;3.20;2.90;;;;;;;10.63;100.00;99283.34;6214535;23;20043;-65
2022/04/10 10:06:42;;;;;;;3.05;2.75;;;;;;;10.52;100.00;99285.47;6192216;23;20108;-65
2022/04/10 10:09:28;;;;;;;4.20;2.42;;;;;;;10.57;100.00;99302.97;6213082;23;20074;-64
2022/04/10 10:12:14;;;;;;;4.18;2.40;;;;;;;10.81;100.00;99301.41;6191489;23;20466;-64
2022/04/10 10:14:58;;;;;;;2.90;2.15;;;;;;;11.06;100.00;99302.44;6192171;23;20356;-62
2022/04/10 10:17:43;;;;;;;4.45;2.70;;;;;;;11.24;100.00;99304.56;6192152;23;20465;-63
2022/04/10 10:20:28;;;;;;;7.82;3.63;;;;;;;11.07;100.00;99305.03;6213587;23;20126;-64
2022/04/10 10:23:14;;;;;;;3.53;3.22;;;;;;;11.18;100.00;99307.38;6224268;23;20470;-64
2022/04/10 10:26:04;;;;;;;3.92;3.30;;;;;;;11.36;100.00;99310.34;6192265;23;20027;-64
2022/04/10 10:28:55;;;;;;;4.72;3.55;;;;;;;11.51;100.00;99309.88;6202270;23;20043;-64
2022/04/10 10:32:00;;;;;;;4.15;2.88;;;;;;;11.70;100.00;99324.34;6202133;23;20027;-64
2022/04/10 10:34:51;;;;;;;5.45;3.35;;;;;;;11.80;100.00;99319.63;6160572;23;20578;-64
2022/04/10 10:37:49;;;;;;;4.50;3.05;;;;;;;11.88;100.00;99328.22;6151481;23;20069;-63
2022/04/10 10:40:34;;;;;;;5.07;3.30;;;;;;;11.58;100.00;99319.41;6121653;23;20052;-63
2022/04/10 10:43:20;;;;;;;3.00;2.70;;;;;;;11.82;100.00;99344.34;6140565;23;20044;-63
2022/04/10 10:46:20;;;;;;;3.70;2.30;;;;;;;12.00;100.00;99347.31;6110361;23;20100;-64
2022/04/10 10:49:20;;;;;;;3.25;1.90;;;;;;;12.01;100.00;99349.03;6109988;23;20132;-63
2022/04/10 10:52:10;;;;;;;2.80;1.77;;;;;;;11.94;100.00;99354.56;6109863;23;20093;-63
2022/04/10 10:54:59;;;;;;;3.47;1.80;;;;;;;11.57;100.00;99333.59;6130790;23;20028;-62
2022/04/10 10:57:44;;;;;;;3.05;1.90;;;;;;;11.41;100.00;99364.19;6119143;23;20108;-64
2022/04/10 11:00:37;;;;;;;3.03;2.03;;;;;;;11.33;100.00;99376.81;6110177;23;20360;-62
2022/04/10 11:03:22;;;;;;;2.58;2.00;;;;;;;11.42;100.00;99363.25;6152133;23;20032;-62
2022/04/10 11:06:14;;;;;;;3.45;2.45;;;;;;;11.70;100.00;99366.84;6111249;23;20028;-64
2022/04/10 11:09:38;;;;;;;2.92;1.90;;;;;;;11.71;100.00;99365.94;6129107;23;20195;-63
2022/04/10 11:12:49;;;;;;;4.13;2.38;;;;;;;11.53;100.00;99362.94;6177641;23;20074;-63
2022/04/10 11:15:48;;;;;;;5.07;2.53;;;;;;;11.49;100.00;99342.72;6168454;23;20055;-65
2022/04/10 11:18:37;;;;;;;2.33;2.00;;;;;;;11.56;100.00;99371.69;6213229;23;20098;-63
2022/04/10 11:21:22;;;;;;;5.43;2.60;;;;;;;11.51;100.00;99370.09;6222857;23;20485;-64
2022/04/10 11:24:09;;;;;;;5.38;3.10;;;;;;;11.48;100.00;99368.38;6224716;23;20032;-65
2022/04/10 11:26:53;;;;;;;6.40;3.00;;;;;;;11.42;100.00;99350.00;6193044;23;20031;-65
2022/04/10 11:29:49;;;;;;;4.20;2.83;;;;;;;11.77;100.00;99365.75;6224748;23;20493;-65
2022/04/10 11:32:43;;;;;;;4.32;3.25;;;;;;;12.03;100.00;99367.59;6214342;23;20031;-64
2022/04/10 11:35:29;;;;;;;6.03;3.45;;;;;;;12.09;100.00;99360.28;6226335;23;20122;-64
2022/04/10 11:38:18;;;;;;;5.00;3.50;;;;;;;12.12;100.00;99364.63;6172471;23;20027;-64
2022/04/10 11:41:05;;;;;;;5.82;3.45;;;;;;;12.14;100.00;99365.44;6224479;23;20027;-65
2022/04/10 11:43:52;;;;;;;3.95;3.55;;;;;;;11.91;100.00;99363.50;6172004;23;20039;-67
2022/04/10 11:46:37;;;;;;;14.10;3.70;;;;;;;12.01;100.00;99380.91;6172177;23;20051;-64
2022/04/10 11:49:22;;;;;;;5.35;3.42;;;;;;;12.02;100.00;99382.66;6203238;23;20527;-66
2022/04/10 11:52:07;;;;;;;5.57;3.35;;;;;;;11.98;100.00;99372.16;6203088;23;20019;-63
2022/04/10 11:54:51;;;;;;;5.53;3.55;;;;;;;12.09;100.00;99381.53;6224369;23;20039;-66
2022/04/10 11:57:38;;;;;;;4.28;3.40;;;;;;;12.07;100.00;99386.03;6170966;23;20070;-65
2022/04/10 12:00:23;;;;;;;3.53;2.83;;;;;;;11.91;100.00;99394.53;6223871;23;20019;-66
2022/04/10 12:03:08;;;;;;;3.33;2.70;;;;;;;11.91;100.00;99392.75;6193045;23;20457;-64
2022/04/10 12:05:53;;;;;;;;;;;;;;;12.05;100.00;99395.84;6225640;23;20503;-64
2022/04/10 12:08:38;;;;;;;3.28;2.97;;;;;;;12.08;100.00;99397.53;6170758;23;20278;-71
2022/04/10 12:11:23;;;;;;;3.72;2.97;;;;;;;12.02;100.00;99387.97;6223763;23;20020;-63
2022/04/10 12:14:26;;;;;;;6.93;3.25;;;;;;;12.03;100.00;99404.78;6222018;23;20299;-66
2022/04/10 12:17:13;;;;;;;6.97;3.08;;;;;;;11.93;100.00;99412.19;6213113;23;20466;-65
2022/04/10 12:19:58;;;;;;;7.63;3.60;;;;;;;11.80;100.00;99416.13;6212892;23;20089;-65
2022/04/10 12:22:42;;;;;;;6.13;3.25;;;;;;;11.60;100.00;99417.59;6223618;23;20066;-64
2022/04/10 12:25:28;;;;;;;7.10;3.60;;;;;;;11.53;100.00;99421.34;6225194;23;20358;-64
2022/04/10 12:28:13;;;;;;;8.27;3.60;;;;;;;11.48;100.00;99402.03;6223536;23;20023;-65
2022/04/10 12:31:02;;;;;;;7.15;3.58;;;;;;;11.59;100.00;99422.03;6225284;23;20027;-64
2022/04/10 12:33:47;;;;;;;8.50;3.53;;;;;;;11.32;100.00;99403.41;6212252;23;20020;-65
2022/04/10 12:36:32;;;;;;;24.58;11.88;;;;;;;11.23;100.00;99385.94;6226884;22;20481;-66
2022/04/10 12:39:27;;;;;;;;;;;;;;;11.63;100.00;99426.38;6221909;23;20059;-65
2022/04/10 12:42:19;;;;;;;12.02;4.00;;;;;;;11.62;100.00;99422.00;6254588;23;19922;-66
2022/04/10 12:45:10;;;;;;;4.82;3.67;;;;;;;11.68;100.00;99427.13;6178190;23;20093;-64
2022/04/10 12:47:55;;;;;;;6.72;3.80;;;;;;;11.62;100.00;99423.75;6220882;23;20055;-65
2022/04/10 12:50:39;;;;;;;5.82;3.70;;;;;;;11.66;100.00;99420.09;6254797;23;20070;-63
2022/04/10 12:53:26;;;;;;;7.55;3.80;;;;;;;11.85;100.00;99430.13;6231590;23;20031;-64
2022/04/10 12:56:21;;;;;;;5.72;3.50;;;;;;;11.75;100.00;99402.09;6200520;23;20023;-64
2022/04/10 12:59:06;;;;;;;8.45;3.10;;;;;;;11.84;100.00;99438.16;6211145;23;20362;-63
2022/04/10 13:01:52;;;;;;;5.63;3.40;;;;;;;11.79;100.00;99440.09;6202439;23;20031;-64
2022/04/10 13:04:36;;;;;;;4.28;3.20;;;;;;;11.70;100.00;99438.56;6257175;23;20031;-63
2022/04/10 13:07:21;;;;;;;6.43;3.70;;;;;;;11.68;100.00;99436.88;6232144;23;20077;-64
2022/04/10 13:10:07;;;;;;;5.43;3.33;;;;;;;11.71;100.00;99442.09;6181127;23;20378;-63
2022/04/10 13:13:10;;;;;;;3.60;3.03;;;;;;;11.74;100.00;99439.31;6184752;23;20028;-64
2022/04/10 13:15:57;;;;;;;5.13;3.08;;;;;;;11.68;100.00;99442.19;6193530;23;20075;-64
2022/04/10 13:18:41;;;;;;;5.05;3.10;;;;;;;11.60;100.00;99439.75;6184325;23;20028;-65
2022/04/10 13:21:26;;;;;;;8.95;3.45;;;;;;;11.67;100.00;99448.41;6172107;23;20083;-63
2022/04/10 13:24:11;;;;;;;9.23;3.70;;;;;;;11.71;100.00;99445.59;6194708;23;20063;-62
2022/04/10 13:26:56;;;;;;;4.97;3.17;;;;;;;11.62;100.00;99442.34;6194849;23;20087;-65